Time;durP1;ratioP1;P1;durP2;ratioP2;P2;SDS_P1;SDS_P2;PMS_P1;PMS_P2;Temp;Humidity;BMP_temperature;BMP_pressure;BME280_temperature;BME280_humidity;BME280_pressure;Samples;Min_cycle;Max_cycle;Signal;HPM_P1;HPM_P2
2022/06/12 00:00:36;;;;;;;56.13;13.75;;;;;;;;;;4914018;29;20052;-68
2022/06/12 00:03:04;;;;;;;23.48;11.30;;;;;;;;;;4917673;29;20055;-72
2022/06/12 00:05:31;;;;;;;37.72;13.77;;;;;;;;;;4906525;29;20051;-72
2022/06/12 00:07:58;;;;;;;37.70;12.77;;;;;;;;;;4910619;29;20466;-72
2022/06/12 00:10:25;;;;;;;48.58;12.73;;;;;;;;;;4896631;29;20497;-72
2022/06/12 00:12:51;;;;;;;34.63;12.00;;;;;;;;;;4930641;29;20051;-72
2022/06/12 00:15:19;;;;;;;54.80;14.68;;;;;;;;;;4901953;29;20554;-66
2022/06/12 00:17:46;;;;;;;39.20;13.07;;;;;;;;;;4905347;29;20071;-67
2022/06/12 00:20:14;;;;;;;39.38;14.48;;;;;;;;;;4901052;29;20159;-66
2022/06/12 00:22:41;;;;;;;36.00;13.95;;;;;;;;;;4913392;29;20048;-66
2022/06/12 00:25:09;;;;;;;52.45;15.00;;;;;;;;;;4915684;29;20044;-67
2022/06/12 00:27:36;;;;;;;39.05;13.05;;;;;;;;;;4909295;29;20067;-66
2022/06/12 00:30:06;;;;;;;39.25;13.65;;;;;;;;;;4911613;29;20119;-66
2022/06/12 00:32:35;;;;;;;40.00;13.82;;;;;;;;;;4906364;29;20044;-67
2022/06/12 00:35:02;;;;;;;29.02;14.35;;;;;;;;;;4905459;29;20131;-66
2022/06/12 00:37:28;;;;;;;48.30;15.50;;;;;;;;;;4899714;29;20108;-66
2022/06/12 00:39:56;;;;;;;47.55;16.08;;;;;;;;;;4896662;29;20079;-71
2022/06/12 00:42:25;;;;;;;46.58;14.00;;;;;;;;;;4899771;29;20081;-71
2022/06/12 00:44:52;;;;;;;39.40;13.85;;;;;;;;;;4899812;29;20040;-71
2022/06/12 00:47:19;;;;;;;41.97;14.43;;;;;;;;;;4914941;29;20486;-71
2022/06/12 00:49:45;;;;;;;65.43;15.52;;;;;;;;;;4899209;29;20119;-71
2022/06/12 00:52:15;;;;;;;52.38;13.98;;;;;;;;;;4915131;29;20127;-71
2022/06/12 00:54:45;;;;;;;43.35;13.35;;;;;;;;;;4897804;29;20577;-71
2022/06/12 00:57:12;;;;;;;28.50;13.10;;;;;;;;;;4909955;29;20048;-71
2022/06/12 00:59:38;;;;;;;34.13;12.25;;;;;;;;;;4912868;29;20046;-72
2022/06/12 01:02:07;;;;;;;36.00;12.15;;;;;;;;;;4909135;29;20460;-65
2022/06/12 01:07:22;;;;;;;40.30;13.10;;;;;;;;;;4895231;29;20041;-64
2022/06/12 01:09:50;;;;;;;34.63;13.10;;;;;;;;;;4914827;29;20123;-65
2022/06/12 01:12:19;;;;;;;40.55;13.23;;;;;;;;;;4899723;29;20135;-67
2022/06/12 01:14:48;;;;;;;35.30;12.82;;;;;;;;;;4899263;29;20076;-66
2022/06/12 01:17:16;;;;;;;58.55;14.18;;;;;;;;;;4905661;29;20040;-66
2022/06/12 01:19:44;;;;;;;37.60;13.02;;;;;;;;;;4899078;29;20417;-66
2022/06/12 01:22:29;;;;;;;43.33;13.75;;;;;;;;;;4897827;29;20072;-66
2022/06/12 01:25:07;;;;;;;51.05;15.57;;;;;;;;;;4900169;29;20048;-67
2022/06/12 01:27:36;;;;;;;52.80;14.27;;;;;;;;;;4908460;29;20217;-67
2022/06/12 01:30:23;;;;;;;28.60;11.30;;;;;;;;;;4911413;29;20071;-67
2022/06/12 01:33:01;;;;;;;30.05;10.95;;;;;;;;;;4894161;29;20036;-67
2022/06/12 01:35:34;;;;;;;33.70;12.15;;;;;;;;;;4894321;29;20040;-67
2022/06/12 01:38:15;;;;;;;36.43;12.03;;;;;;;;;;4903696;29;20048;-67
2022/06/12 01:40:54;;;;;;;37.85;12.18;;;;;;;;;;4899210;29;20282;-67
2022/06/12 01:43:35;;;;;;;32.55;10.98;;;;;;;;;;4898303;29;20134;-67
2022/06/12 01:46:04;;;;;;;36.55;10.57;;;;;;;;;;4899845;29;20045;-67
2022/06/12 01:48:34;;;;;;;32.03;10.98;;;;;;;;;;4900489;29;20489;-68
2022/06/12 01:51:07;;;;;;;41.42;11.82;;;;;;;;;;4908541;29;20125;-74
2022/06/12 01:53:39;;;;;;;39.53;11.38;;;;;;;;;;4887446;29;20043;-68
2022/06/12 01:56:08;;;;;;;50.70;12.52;;;;;;;;;;4904730;29;20636;-71
2022/06/12 01:58:45;;;;;;;38.88;11.75;;;;;;;;;;4917076;29;20045;-71
2022/06/12 02:01:15;;;;;;;47.88;12.38;;;;;;;;;;4916930;29;20497;-71
2022/06/12 02:03:43;;;;;;;24.05;10.65;;;;;;;;;;4901274;29;20048;-71
2022/06/12 02:06:13;;;;;;;35.65;11.50;;;;;;;;;;4885761;29;20577;-71
2022/06/12 02:08:47;;;;;;;25.63;11.23;;;;;;;;;;4902479;29;20032;-71
2022/06/12 02:14:38;;;;;;;35.03;11.00;;;;;;;;;;4849283;29;20102;-71
2022/06/12 02:17:06;;;;;;;25.58;10.10;;;;;;;;;;4859588;29;20498;-70
2022/06/12 02:19:34;;;;;;;36.40;11.40;;;;;;;;;;4859731;29;20121;-70
2022/06/12 02:22:04;;;;;;;37.60;11.57;;;;;;;;;;4859848;29;20056;-70
2022/06/12 02:24:34;;;;;;;31.27;11.75;;;;;;;;;;4860189;29;20124;-70
2022/06/12 02:27:02;;;;;;;30.05;11.50;;;;;;;;;;4859387;29;20515;-71
2022/06/12 02:29:41;;;;;;;25.48;10.65;;;;;;;;;;4859443;29;20061;-68
2022/06/12 02:32:13;;;;;;;29.23;10.15;;;;;;;;;;4859312;29;20113;-68
2022/06/12 02:34:42;;;;;;;25.70;10.13;;;;;;;;;;4848847;29;20057;-68
2022/06/12 02:37:13;;;;;;;38.25;9.93;;;;;;;;;;4858601;29;20132;-67
2022/06/12 02:39:42;;;;;;;25.95;9.45;;;;;;;;;;4859548;29;20794;-67
2022/06/12 02:42:15;;;;;;;28.27;9.02;;;;;;;;;;4847094;29;20137;-68
2022/06/12 02:44:44;;;;;;;28.75;10.10;;;;;;;;;;4858534;29;20049;-68
2022/06/12 02:47:13;;;;;;;25.05;9.15;;;;;;;;;;4859999;29;20427;-67
2022/06/12 02:49:43;;;;;;;24.83;9.52;;;;;;;;;;4898762;29;20049;-65
2022/06/12 02:52:33;;;;;;;39.75;10.13;;;;;;;;;;4908538;29;20190;-66
2022/06/12 02:55:02;;;;;;;32.42;9.30;;;;;;;;;;4873897;29;20113;-68
2022/06/12 02:57:35;;;;;;;23.20;9.07;;;;;;;;;;4877622;29;20144;-69
2022/06/12 03:00:20;;;;;;;48.15;10.88;;;;;;;;;;4875749;29;20112;-67
2022/06/12 03:02:54;;;;;;;29.45;9.80;;;;;;;;;;4876816;29;20049;-69
2022/06/12 03:05:24;;;;;;;29.98;9.00;;;;;;;;;;4876919;29;20057;-67
2022/06/12 03:07:54;;;;;;;29.17;7.68;;;;;;;;;;4876467;29;20126;-67
2022/06/12 03:10:22;;;;;;;36.05;7.32;;;;;;;;;;4876775;29;20079;-67
2022/06/12 03:12:50;;;;;;;21.77;7.20;;;;;;;;;;4877388;29;20429;-67
2022/06/12 03:40:01;;;;;;;84.88;11.23;;;;;;;;;;4935846;23;20026;-65
2022/06/12 03:42:33;;;;;;;32.47;8.93;;;;;;;;;;4935238;29;20044;-65
2022/06/12 03:45:04;;;;;;;22.15;9.00;;;;;;;;;;4934910;29;20075;-64
2022/06/12 03:47:40;;;;;;;24.67;8.73;;;;;;;;;;4935209;29;20059;-66
2022/06/12 03:50:16;;;;;;;24.83;9.43;;;;;;;;;;4918234;29;20043;-66
2022/06/12 03:52:48;;;;;;;65.25;11.82;;;;;;;;;;4934762;29;20047;-67
2022/06/12 03:58:31;;;;;;;28.33;9.55;;;;;;;;;;4918958;29;20042;-72
2022/06/12 04:01:00;;;;;;;24.00;8.65;;;;;;;;;;4941986;29;20520;-73
2022/06/12 04:03:28;;;;;;;39.65;9.18;;;;;;;;;;4935433;29;20044;-73
2022/06/12 04:06:00;;;;;;;32.58;8.75;;;;;;;;;;4935666;29;20493;-66
2022/06/12 04:08:38;;;;;;;35.33;9.70;;;;;;;;;;4933609;29;20079;-65
2022/06/12 04:11:08;;;;;;;37.83;8.38;;;;;;;;;;4928217;29;20139;-66
2022/06/12 04:13:37;;;;;;;23.55;8.90;;;;;;;;;;4934229;29;20052;-66
2022/06/12 04:16:12;;;;;;;51.80;11.85;;;;;;;;;;4934914;29;20118;-67
2022/06/12 04:18:39;;;;;;;37.25;11.18;;;;;;;;;;4918923;29;20127;-72
2022/06/12 04:21:28;;;;;;;34.67;10.90;;;;;;;;;;4929092;29;20072;-75
2022/06/12 04:24:09;;;;;;;32.28;10.55;;;;;;;;;;4930643;29;20556;-72
2022/06/12 04:26:36;;;;;;;28.25;9.82;;;;;;;;;;4917139;29;20063;-72
2022/06/12 04:29:05;;;;;;;30.67;11.40;;;;;;;;;;4933946;29;20055;-71
2022/06/12 04:31:32;;;;;;;53.20;13.35;;;;;;;;;;4930071;29;20043;-67
2022/06/12 04:34:06;;;;;;;48.33;12.07;;;;;;;;;;4931135;29;20123;-67
2022/06/12 04:36:33;;;;;;;58.83;11.48;;;;;;;;;;4928951;29;20075;-68
2022/06/12 04:39:00;;;;;;;36.28;10.02;;;;;;;;;;4927310;29;20571;-68
2022/06/12 04:41:30;;;;;;;38.40;10.80;;;;;;;;;;4929752;29;20428;-67
2022/06/12 04:43:57;;;;;;;25.77;8.65;;;;;;;;;;4933760;29;20081;-67
2022/06/12 04:46:24;;;;;;;34.20;8.93;;;;;;;;;;4933291;29;20043;-67
2022/06/12 04:48:54;;;;;;;19.25;7.90;;;;;;;;;;4934847;29;20039;-69
2022/06/12 04:51:21;;;;;;;20.55;7.75;;;;;;;;;;4933733;29;20052;-72
2022/06/12 04:53:48;;;;;;;40.05;8.55;;;;;;;;;;4933248;29;20067;-69
2022/06/12 04:56:15;;;;;;;20.60;7.82;;;;;;;;;;4932948;29;20047;-65
2022/06/12 04:58:42;;;;;;;20.00;8.05;;;;;;;;;;4936206;29;20095;-70
2022/06/12 05:01:09;;;;;;;55.10;10.32;;;;;;;;;;4934758;29;20047;-70
2022/06/12 05:03:35;;;;;;;26.30;8.00;;;;;;;;;;4934963;29;20061;-69
2022/06/12 05:06:03;;;;;;;36.42;9.55;;;;;;;;;;4933271;29;20044;-70
2022/06/12 05:08:30;;;;;;;23.58;7.57;;;;;;;;;;4933486;29;20231;-71
2022/06/12 05:10:56;;;;;;;44.05;8.90;;;;;;;;;;4929885;29;20126;-73
2022/06/12 05:13:23;;;;;;;33.25;7.88;;;;;;;;;;4932083;29;20044;-72
2022/06/12 05:15:50;;;;;;;35.90;8.10;;;;;;;;;;4932410;29;20130;-72
2022/06/12 05:18:17;;;;;;;40.05;8.00;;;;;;;;;;4931817;29;20048;-73
2022/06/12 05:20:45;;;;;;;34.65;7.72;;;;;;;;;;4931200;29;20481;-72
2022/06/12 05:23:16;;;;;;;47.45;8.13;;;;;;;;;;4929486;29;20052;-71
2022/06/12 05:25:43;;;;;;;19.13;6.07;;;;;;;;;;4933500;29;20547;-72
2022/06/12 05:28:11;;;;;;;33.33;6.88;;;;;;;;;;4933775;29;20059;-74
2022/06/12 05:30:38;;;;;;;26.60;5.43;;;;;;;;;;4934006;29;20071;-74
2022/06/12 05:33:05;;;;;;;13.90;4.60;;;;;;;;;;4933937;29;20055;-74
2022/06/12 05:35:33;;;;;;;14.18;5.43;;;;;;;;;;4933754;29;20409;-69
2022/06/12 05:38:00;;;;;;;15.70;5.30;;;;;;;;;;4934088;29;20044;-74
2022/06/12 05:40:31;;;;;;;19.45;5.22;;;;;;;;;;4934728;29;20055;-73
2022/06/12 05:42:57;;;;;;;17.10;5.13;;;;;;;;;;4935447;29;20564;-73
2022/06/12 05:45:25;;;;;;;30.63;6.93;;;;;;;;;;4934283;29;20131;-73
2022/06/12 05:47:52;;;;;;;14.77;5.05;;;;;;;;;;4934716;29;20050;-73
2022/06/12 05:50:20;;;;;;;40.28;6.80;;;;;;;;;;4933487;29;20115;-73
2022/06/12 05:52:46;;;;;;;22.80;5.30;;;;;;;;;;4933671;29;20070;-73
2022/06/12 05:55:13;;;;;;;42.60;6.95;;;;;;;;;;4933758;29;20055;-73
2022/06/12 05:57:40;;;;;;;29.45;6.45;;;;;;;;;;4940976;29;20051;-73
2022/06/12 06:00:09;;;;;;;13.98;4.68;;;;;;;;;;4944359;29;20051;-74
2022/06/12 06:02:38;;;;;;;21.10;5.85;;;;;;;;;;4929046;29;20039;-74
2022/06/12 06:05:06;;;;;;;40.00;6.82;;;;;;;;;;4928613;29;20095;-73
2022/06/12 06:07:33;;;;;;;23.20;4.97;;;;;;;;;;4924243;29;20080;-72
2022/06/12 06:10:00;;;;;;;20.48;5.55;;;;;;;;;;4925666;29;20127;-72
2022/06/12 06:12:27;;;;;;;32.00;6.45;;;;;;;;;;4927977;29;20056;-72
2022/06/12 06:14:54;;;;;;;40.10;6.80;;;;;;;;;;4930760;29;20127;-72
2022/06/12 06:17:20;;;;;;;18.25;5.57;;;;;;;;;;4934111;29;20091;-72
2022/06/12 06:19:47;;;;;;;15.15;4.53;;;;;;;;;;4933273;29;20028;-72
2022/06/12 06:22:16;;;;;;;94.60;9.38;;;;;;;;;;4933434;29;20078;-72
2022/06/12 06:24:43;;;;;;;29.10;5.28;;;;;;;;;;4934703;29;20389;-72
2022/06/12 06:27:10;;;;;;;18.38;4.43;;;;;;;;;;4933653;29;20051;-73
2022/06/12 06:29:37;;;;;;;16.00;4.82;;;;;;;;;;4928091;29;20068;-73
2022/06/12 06:32:05;;;;;;;19.70;4.93;;;;;;;;;;4927575;29;20143;-72
2022/06/12 06:34:31;;;;;;;22.95;5.65;;;;;;;;;;4928819;29;20040;-72
2022/06/12 06:36:59;;;;;;;13.50;4.00;;;;;;;;;;4928856;29;20051;-72
2022/06/12 06:39:26;;;;;;;18.83;4.10;;;;;;;;;;4931357;29;20040;-72
2022/06/12 06:41:52;;;;;;;25.35;4.43;;;;;;;;;;4945503;29;20475;-72
2022/06/12 06:47:05;;;;;;;18.40;4.72;;;;;;;;;;4954443;28;20407;-71
2022/06/12 06:49:31;;;;;;;16.70;4.03;;;;;;;;;;4955406;29;20433;-57
2022/06/12 06:51:58;;;;;;;17.20;4.00;;;;;;;;;;4956111;29;20047;-58
2022/06/12 06:54:25;;;;;;;45.75;5.35;;;;;;;;;;4949251;29;20044;-60
2022/06/12 06:56:52;;;;;;;22.58;3.70;;;;;;;;;;4955262;29;20412;-58
2022/06/12 06:59:19;;;;;;;20.60;3.63;;;;;;;;;;4954876;29;20432;-59
2022/06/12 07:01:45;;;;;;;44.10;4.95;;;;;;;;;;4955167;29;20042;-59
2022/06/12 07:04:12;;;;;;;35.50;4.10;;;;;;;;;;4955444;28;20118;-58
2022/06/12 07:06:39;;;;;;;250.60;18.73;;;;;;;;;;4945514;29;20123;-59
2022/06/12 07:09:06;;;;;;;15.55;3.55;;;;;;;;;;4952521;28;20078;-59
2022/06/12 07:11:32;;;;;;;16.63;2.78;;;;;;;;;;4954909;29;20043;-58
2022/06/12 07:13:59;;;;;;;11.52;2.42;;;;;;;;;;4954748;28;20039;-58
2022/06/12 07:16:27;;;;;;;27.75;3.35;;;;;;;;;;4955027;29;20498;-60
2022/06/12 07:18:53;;;;;;;14.40;2.40;;;;;;;;;;4956107;28;20046;-57
2022/06/12 07:21:21;;;;;;;8.40;2.10;;;;;;;;;;4954270;29;20512;-58
2022/06/12 07:23:48;;;;;;;19.02;2.83;;;;;;;;;;4954773;28;20039;-58
2022/06/12 07:26:17;;;;;;;41.20;4.47;;;;;;;;;;4954190;29;20058;-58
2022/06/12 07:28:43;;;;;;;35.88;3.92;;;;;;;;;;4947654;28;20066;-58
2022/06/12 07:31:10;;;;;;;39.78;4.20;;;;;;;;;;4944245;28;20049;-58
2022/06/12 07:33:37;;;;;;;16.30;2.47;;;;;;;;;;4945345;28;20491;-57
2022/06/12 07:36:08;;;;;;;32.50;3.75;;;;;;;;;;4943424;29;20057;-57
2022/06/12 07:38:36;;;;;;;49.97;5.10;;;;;;;;;;4943053;29;20035;-57
2022/06/12 07:41:22;;;;;;;18.63;2.75;;;;;;;;;;4947450;28;20059;-57
2022/06/12 07:43:49;;;;;;;25.27;3.33;;;;;;;;;;4945894;28;20568;-57
2022/06/12 07:46:17;;;;;;;94.88;7.22;;;;;;;;;;4944316;29;20044;-57
2022/06/12 07:48:44;;;;;;;48.50;4.80;;;;;;;;;;4943896;29;20070;-57
2022/06/12 07:51:12;;;;;;;31.02;3.90;;;;;;;;;;4943174;28;20082;-57
2022/06/12 07:53:39;;;;;;;26.77;3.35;;;;;;;;;;4944506;28;20485;-57
2022/06/12 07:56:07;;;;;;;22.50;3.60;;;;;;;;;;4944337;28;20476;-59
2022/06/12 07:58:34;;;;;;;28.77;3.08;;;;;;;;;;4942906;29;20122;-59
2022/06/12 08:01:01;;;;;;;31.65;3.63;;;;;;;;;;4945332;28;20047;-59
2022/06/12 08:03:29;;;;;;;24.10;2.88;;;;;;;;;;4942578;28;20039;-59
2022/06/12 08:05:56;;;;;;;37.42;3.95;;;;;;;;;;4945005;28;20047;-60
2022/06/12 08:08:22;;;;;;;39.67;4.18;;;;;;;;;;4948648;28;20418;-60
2022/06/12 08:10:49;;;;;;;179.10;11.25;;;;;;;;;;4946890;29;20126;-60
2022/06/12 08:13:16;;;;;;;43.88;4.65;;;;;;;;;;4942961;29;20039;-60
2022/06/12 08:15:47;;;;;;;33.60;4.32;;;;;;;;;;4944132;29;20048;-59
2022/06/12 08:18:14;;;;;;;30.73;3.00;;;;;;;;;;4942746;28;20071;-59
2022/06/12 08:20:45;;;;;;;56.92;5.10;;;;;;;;;;4943226;29;20127;-60
2022/06/12 08:23:27;;;;;;;32.85;3.70;;;;;;;;;;4944861;29;20067;-60
2022/06/12 08:25:55;;;;;;;22.85;3.30;;;;;;;;;;4941425;29;20106;-59
2022/06/12 08:28:22;;;;;;;42.88;4.13;;;;;;;;;;4953148;28;20048;-60
2022/06/12 08:30:49;;;;;;;16.63;2.78;;;;;;;;;;4954526;29;20130;-60
2022/06/12 08:33:16;;;;;;;27.92;3.47;;;;;;;;;;4954000;28;20047;-56
2022/06/12 08:35:42;;;;;;;28.35;3.65;;;;;;;;;;4953535;28;20047;-59
2022/06/12 08:38:11;;;;;;;26.17;3.63;;;;;;;;;;4953112;28;20385;-58
2022/06/12 08:40:57;;;;;;;43.42;4.57;;;;;;;;;;4935908;29;20516;-70
2022/06/12 08:43:26;;;;;;;11.18;2.60;;;;;;;;;;4953409;28;20042;-70
2022/06/12 08:45:55;;;;;;;10.65;2.47;;;;;;;;;;4954548;28;20039;-63
2022/06/12 08:48:25;;;;;;;58.28;4.95;;;;;;;;;;4951950;28;20050;-64
2022/06/12 08:50:55;;;;;;;24.05;3.47;;;;;;;;;;4949446;29;20074;-64
2022/06/12 08:53:31;;;;;;;17.45;2.90;;;;;;;;;;4942935;29;20117;-64
2022/06/12 08:56:02;;;;;;;24.83;3.47;;;;;;;;;;4944108;28;20047;-64
2022/06/12 08:58:31;;;;;;;159.63;12.13;;;;;;;;;;4942001;28;20058;-65
2022/06/12 09:00:58;;;;;;;27.42;3.72;;;;;;;;;;4944332;29;20088;-64
2022/06/12 09:03:27;;;;;;;26.60;4.18;;;;;;;;;;4946154;29;20142;-63
2022/06/12 09:05:54;;;;;;;164.35;12.52;;;;;;;;;;4945807;29;20036;-64
2022/06/12 09:08:26;;;;;;;33.55;5.28;;;;;;;;;;4944913;29;20122;-64
2022/06/12 09:11:02;;;;;;;14.55;3.13;;;;;;;;;;4945224;29;20495;-64
2022/06/12 09:13:46;;;;;;;26.20;3.72;;;;;;;;;;4945284;29;20042;-65
2022/06/12 09:16:27;;;;;;;47.20;5.15;;;;;;;;;;4944229;29;20043;-62
2022/06/12 09:19:07;;;;;;;31.38;4.00;;;;;;;;;;4944005;29;20116;-61
2022/06/12 09:21:33;;;;;;;94.75;7.47;;;;;;;;;;4948273;28;20031;-62
2022/06/12 09:24:06;;;;;;;42.50;3.97;;;;;;;;;;4926865;28;20118;-62
2022/06/12 09:26:44;;;;;;;25.33;4.15;;;;;;;;;;4947193;28;20067;-60
2022/06/12 09:29:22;;;;;;;16.35;3.53;;;;;;;;;;4947497;28;20468;-60
2022/06/12 09:32:08;;;;;;;21.85;3.20;;;;;;;;;;4926429;29;20111;-61
2022/06/12 09:34:38;;;;;;;142.63;10.63;;;;;;;;;;4946174;29;20047;-60
2022/06/12 09:40:14;;;;;;;43.57;4.70;;;;;;;;;;4942371;29;20044;-60
2022/06/12 09:42:41;;;;;;;;;;;;;;;;;;4947944;28;20082;-60
2022/06/12 09:45:14;;;;;;;74.07;7.13;;;;;;;;;;4945363;29;20021;-60
2022/06/12 09:47:41;;;;;;;37.13;5.05;;;;;;;;;;4949309;29;20535;-60
2022/06/12 09:50:33;;;;;;;28.98;3.80;;;;;;;;;;4947038;29;20043;-59
2022/06/12 09:53:08;;;;;;;117.00;9.25;;;;;;;;;;4946203;29;20055;-60
2022/06/12 09:55:43;;;;;;;15.75;3.53;;;;;;;;;;4945246;28;20122;-60
2022/06/12 09:58:16;;;;;;;36.80;5.57;;;;;;;;;;4945174;29;20074;-59
2022/06/12 10:00:47;;;;;;;12.35;4.03;;;;;;;;;;4945870;29;20401;-61
2022/06/12 10:03:19;;;;;;;12.95;4.30;;;;;;;;;;4947580;28;20080;-59
2022/06/12 10:05:46;;;;;;;53.85;5.95;;;;;;;;;;4916118;29;20082;-61
2022/06/12 10:08:19;;;;;;;;;;;;;;;;;;4943564;28;20472;-69
2022/06/12 10:10:54;;;;;;;12.15;2.97;;;;;;;;;;4951021;28;19958;-57
2022/06/12 10:13:23;;;;;;;30.38;5.68;;;;;;;;;;4947716;28;20055;-57
2022/06/12 10:15:52;;;;;;;56.78;7.55;;;;;;;;;;4944154;29;20043;-57
2022/06/12 10:18:38;;;;;;;46.50;5.65;;;;;;;;;;4952258;29;20110;-57
2022/06/12 10:21:10;;;;;;;25.25;4.40;;;;;;;;;;4937191;28;20126;-57
2022/06/12 10:23:37;;;;;;;28.10;5.57;;;;;;;;;;4949377;29;20055;-57
2022/06/12 10:26:12;;;;;;;67.85;7.78;;;;;;;;;;4948610;29;20387;-57
2022/06/12 10:28:39;;;;;;;39.13;6.70;;;;;;;;;;4944965;28;20050;-57
2022/06/12 10:31:08;;;;;;;24.65;4.63;;;;;;;;;;4947515;29;20093;-57
2022/06/12 10:33:47;;;;;;;27.65;4.90;;;;;;;;;;4949753;29;20095;-57
2022/06/12 10:36:30;;;;;;;53.85;5.97;;;;;;;;;;4948208;29;20094;-57
2022/06/12 10:38:56;;;;;;;;;;;;;;;;;;4946886;29;20400;-57
2022/06/12 10:41:25;;;;;;;37.58;6.80;;;;;;;;;;4945191;29;19927;-57
2022/06/12 10:43:53;;;;;;;35.45;5.70;;;;;;;;;;4946120;28;20042;-57
2022/06/12 10:46:23;;;;;;;45.42;6.32;;;;;;;;;;4943814;29;20049;-57
2022/06/12 10:49:00;;;;;;;29.45;5.05;;;;;;;;;;4946911;28;20050;-57
2022/06/12 10:51:34;;;;;;;43.58;5.18;;;;;;;;;;4947277;29;20083;-58
2022/06/12 10:54:21;;;;;;;29.08;5.10;;;;;;;;;;4946995;28;20043;-57
2022/06/12 10:56:51;;;;;;;29.25;5.05;;;;;;;;;;4948555;28;20036;-57
2022/06/12 10:59:23;;;;;;;41.80;5.95;;;;;;;;;;4947943;29;20134;-57
2022/06/12 11:01:52;;;;;;;31.33;4.95;;;;;;;;;;4954806;29;20501;-57
2022/06/12 11:04:31;;;;;;;76.72;7.70;;;;;;;;;;4955134;29;20051;-57
2022/06/12 11:07:03;;;;;;;16.02;4.05;;;;;;;;;;4955752;28;20465;-57
2022/06/12 11:09:33;;;;;;;39.03;5.05;;;;;;;;;;4955295;29;20135;-57
2022/06/12 11:12:18;;;;;;;254.35;20.58;;;;;;;;;;4955342;28;20043;-57
2022/06/12 11:15:01;;;;;;;28.10;4.80;;;;;;;;;;4947967;29;20138;-57
2022/06/12 11:17:39;;;;;;;16.85;3.60;;;;;;;;;;4955084;29;20040;-57
2022/06/12 11:20:06;;;;;;;12.65;3.70;;;;;;;;;;4955436;29;20043;-57
2022/06/12 11:22:58;;;;;;;33.67;5.13;;;;;;;;;;4953706;28;20094;-57
2022/06/12 11:25:35;;;;;;;30.98;4.60;;;;;;;;;;4891138;29;20069;-61
2022/06/12 11:28:05;;;;;;;9.52;3.10;;;;;;;;;;4892850;29;20112;-61
2022/06/12 11:30:46;;;;;;;16.88;3.72;;;;;;;;;;4892092;29;20071;-61
2022/06/12 11:33:13;;;;;;;21.05;4.28;;;;;;;;;;4891592;29;20255;-61
2022/06/12 11:35:46;;;;;;;15.95;4.00;;;;;;;;;;4891917;29;20056;-61
2022/06/12 11:38:12;;;;;;;22.77;4.97;;;;;;;;;;4891037;29;20518;-60
2022/06/12 11:40:44;;;;;;;28.42;4.40;;;;;;;;;;4891503;29;20570;-60
2022/06/12 11:43:29;;;;;;;27.08;5.20;;;;;;;;;;4895308;29;20530;-60
2022/06/12 11:46:15;;;;;;;36.55;5.43;;;;;;;;;;4895830;29;20064;-60
2022/06/12 11:48:45;;;;;;;34.95;5.05;;;;;;;;;;4892968;29;20104;-60
2022/06/12 11:51:21;;;;;;;49.00;5.93;;;;;;;;;;4890878;29;20608;-60
2022/06/12 11:54:07;;;;;;;27.95;3.88;;;;;;;;;;4891684;29;20127;-59
2022/06/12 11:56:34;;;;;;;12.60;3.40;;;;;;;;;;4890334;29;20091;-60
2022/06/12 11:59:19;;;;;;;19.73;3.80;;;;;;;;;;4887096;29;20125;-59
2022/06/12 12:01:45;;;;;;;40.17;5.72;;;;;;;;;;4906165;29;20056;-59
2022/06/12 12:04:29;;;;;;;121.45;9.75;;;;;;;;;;4935331;29;20040;-59
2022/06/12 12:07:01;;;;;;;61.17;6.97;;;;;;;;;;4935439;29;20058;-59
2022/06/12 12:09:31;;;;;;;33.22;5.32;;;;;;;;;;4935902;29;20139;-71
2022/06/12 12:12:02;;;;;;;201.50;16.08;;;;;;;;;;4935404;29;20039;-69
2022/06/12 12:14:32;;;;;;;29.98;4.68;;;;;;;;;;4934842;29;20051;-61
2022/06/12 12:17:34;;;;;;;20.85;3.58;;;;;;;;;;4933278;29;20040;-61
2022/06/12 12:20:05;;;;;;;28.13;4.32;;;;;;;;;;4872285;29;20108;-59
2022/06/12 12:22:38;;;;;;;37.10;4.68;;;;;;;;;;4866862;29;20054;-59
2022/06/12 12:25:05;;;;;;;23.58;3.55;;;;;;;;;;4852298;29;20049;-60
2022/06/12 12:27:40;;;;;;;19.33;3.97;;;;;;;;;;4837338;29;20050;-60
2022/06/12 12:30:13;;;;;;;106.68;8.00;;;;;;;;;;4852392;29;20110;-60
2022/06/12 12:32:40;;;;;;;38.97;5.63;;;;;;;;;;4853806;29;20546;-59
2022/06/12 12:35:09;;;;;;;20.67;4.45;;;;;;;;;;4860695;29;20057;-60
2022/06/12 12:43:14;;;;;;;35.03;4.30;;;;;;;;;;4880173;29;20160;-60
2022/06/12 12:45:41;;;;;;;21.10;3.30;;;;;;;;;;4886408;29;20686;-60
2022/06/12 12:48:10;;;;;;;27.83;4.22;;;;;;;;;;4855930;29;20049;-57
2022/06/12 12:50:42;;;;;;;27.75;4.30;;;;;;;;;;4875641;29;20049;-62
2022/06/12 12:53:18;;;;;;;27.93;4.10;;;;;;;;;;4885287;28;20127;-62
2022/06/12 12:55:44;;;;;;;50.22;4.72;;;;;;;;;;4944221;29;20094;-61
2022/06/12 12:58:17;;;;;;;37.08;5.97;;;;;;;;;;4944615;28;20067;-62
2022/06/12 13:00:44;;;;;;;;;;;;;;;;;;4947944;28;20523;-62
2022/06/12 13:03:12;;;;;;;20.50;3.72;;;;;;;;;;4944287;29;19922;-61
2022/06/12 13:05:45;;;;;;;28.27;4.13;;;;;;;;;;4944524;29;20469;-59
2022/06/12 13:08:12;;;;;;;36.78;4.82;;;;;;;;;;4944715;29;20556;-58
2022/06/12 13:10:57;;;;;;;25.33;3.45;;;;;;;;;;4945057;29;20035;-58
2022/06/12 13:13:42;;;;;;;31.70;3.63;;;;;;;;;;4944141;28;20401;-60
2022/06/12 13:16:15;;;;;;;18.17;3.05;;;;;;;;;;4942029;29;20043;-59
2022/06/12 13:18:54;;;;;;;13.75;2.95;;;;;;;;;;4942999;29;20512;-62
2022/06/12 13:21:27;;;;;;;29.35;4.80;;;;;;;;;;4951750;28;20047;-76
2022/06/12 13:24:13;;;;;;;38.50;4.13;;;;;;;;;;4953166;29;20507;-75
2022/06/12 13:26:40;;;;;;;88.40;7.40;;;;;;;;;;4952818;29;20027;-75
2022/06/12 13:29:18;;;;;;;111.43;9.43;;;;;;;;;;4953302;28;20043;-76
2022/06/12 13:31:52;;;;;;;50.67;4.13;;;;;;;;;;4946218;29;20073;-78
2022/06/12 13:34:19;;;;;;;62.25;5.45;;;;;;;;;;4940899;29;20656;-76
2022/06/12 13:36:46;;;;;;;27.77;3.25;;;;;;;;;;4945949;28;20119;-75
2022/06/12 13:39:18;;;;;;;21.73;2.85;;;;;;;;;;4942805;28;20141;-75
2022/06/12 13:41:48;;;;;;;52.55;4.13;;;;;;;;;;4945410;28;20070;-75
2022/06/12 13:44:17;;;;;;;39.30;3.72;;;;;;;;;;4944845;28;20027;-77
2022/06/12 13:46:44;;;;;;;24.73;3.40;;;;;;;;;;4948111;28;20161;-77
2022/06/12 13:49:23;;;;;;;31.33;4.20;;;;;;;;;;4951977;28;20042;-77
2022/06/12 13:51:52;;;;;;;46.42;5.18;;;;;;;;;;4947643;29;20090;-77
2022/06/12 13:54:20;;;;;;;28.45;3.65;;;;;;;;;;4949454;29;20047;-77
2022/06/12 13:56:50;;;;;;;23.40;3.13;;;;;;;;;;4952284;28;20475;-77
2022/06/12 13:59:19;;;;;;;20.33;3.15;;;;;;;;;;4946004;29;20122;-77
2022/06/12 14:01:45;;;;;;;138.30;10.82;;;;;;;;;;4947377;28;20043;-78
2022/06/12 14:04:19;;;;;;;42.05;5.22;;;;;;;;;;4947657;28;20047;-77
2022/06/12 14:06:46;;;;;;;109.78;9.80;;;;;;;;;;4952140;29;20043;-77
2022/06/12 14:09:16;;;;;;;24.50;3.45;;;;;;;;;;4950189;28;20492;-78
2022/06/12 14:11:43;;;;;;;60.65;6.22;;;;;;;;;;4949907;28;20164;-78
2022/06/12 14:14:31;;;;;;;48.80;5.28;;;;;;;;;;4931922;29;20134;-77
2022/06/12 14:16:58;;;;;;;18.88;3.28;;;;;;;;;;4948700;28;20039;-77
2022/06/12 14:19:26;;;;;;;58.78;6.22;;;;;;;;;;4946066;28;20547;-76
2022/06/12 14:22:14;;;;;;;13.45;3.20;;;;;;;;;;4948397;28;20063;-77
2022/06/12 14:24:41;;;;;;;24.15;4.10;;;;;;;;;;4950261;28;20035;-78
2022/06/12 14:27:26;;;;;;;108.65;9.00;;;;;;;;;;4950171;28;20043;-77
2022/06/12 14:29:52;;;;;;;253.75;19.67;;;;;;;;;;4950129;28;20122;-77
2022/06/12 14:32:22;;;;;;;48.45;4.97;;;;;;;;;;4946871;28;20450;-77
2022/06/12 14:34:57;;;;;;;49.17;5.32;;;;;;;;;;4946573;28;20071;-78
2022/06/12 14:37:43;;;;;;;197.98;17.20;;;;;;;;;;4944436;29;20564;-78
2022/06/12 14:40:18;;;;;;;36.95;4.25;;;;;;;;;;4944462;29;20051;-76
2022/06/12 14:42:45;;;;;;;95.10;8.32;;;;;;;;;;4956238;28;20475;-76
2022/06/12 14:45:13;;;;;;;40.30;4.47;;;;;;;;;;4955564;28;20122;-78
2022/06/12 14:47:40;;;;;;;17.52;2.58;;;;;;;;;;4956053;28;20564;-78
2022/06/12 14:50:11;;;;;;;16.98;3.15;;;;;;;;;;4952107;28;20047;-78
2022/06/12 14:52:38;;;;;;;36.58;3.80;;;;;;;;;;4944842;29;20042;-77
2022/06/12 14:55:05;;;;;;;43.13;5.05;;;;;;;;;;4948233;28;20467;-77
2022/06/12 14:57:32;;;;;;;40.38;4.18;;;;;;;;;;4948786;28;20043;-76
2022/06/12 14:59:59;;;;;;;20.73;2.78;;;;;;;;;;4947900;29;20103;-76
2022/06/12 15:02:27;;;;;;;46.55;5.03;;;;;;;;;;4951712;28;20048;-78
2022/06/12 15:04:54;;;;;;;41.08;4.65;;;;;;;;;;4948243;28;20062;-76
2022/06/12 15:07:21;;;;;;;57.35;5.75;;;;;;;;;;4956532;28;20401;-73
2022/06/12 15:09:47;;;;;;;16.70;2.90;;;;;;;;;;4945179;29;20126;-72
2022/06/12 15:12:15;;;;;;;37.80;4.00;;;;;;;;;;4947390;28;20042;-71
2022/06/12 15:14:42;;;;;;;27.10;4.10;;;;;;;;;;4943691;28;20040;-70
2022/06/12 15:17:11;;;;;;;43.70;4.35;;;;;;;;;;4946113;29;20071;-70
2022/06/12 15:19:44;;;;;;;17.88;2.80;;;;;;;;;;4944182;28;20126;-74
2022/06/12 15:22:17;;;;;;;36.47;3.97;;;;;;;;;;4944764;29;20457;-75
2022/06/12 15:24:44;;;;;;;27.10;3.47;;;;;;;;;;4948134;28;20039;-78
2022/06/12 15:29:56;;;;;;;23.45;3.03;;;;;;;;;;4945201;28;20048;-73
2022/06/12 15:32:27;;;;;;;39.75;4.07;;;;;;;;;;4944785;28;20420;-73
2022/06/12 15:34:55;;;;;;;19.02;2.88;;;;;;;;;;4945364;29;20040;-76
2022/06/12 15:37:23;;;;;;;34.83;4.28;;;;;;;;;;4944366;28;20036;-74